Downers Grove, IL (60517)

10:07 PM CDT on July 29, 2015 (GMT -0500)
75th Street/ Janes Ave | | Change Station
CLOSE
Current Station
Personal Weather Station
Location: Woodridge, IL
Elevation: 752 ft
Nearby Weather Stations

Elev 752 ft 41.75 °N, 88.05 °W | Updated 3 seconds ago

Clear
Clear
75.4 °F
Feels Like 78 °F
N
0.0
Wind Variable Wind from North
Gusts 1.2 mph

Today
High -- | Low -- °F
--% Chance of Precip.
Yesterday
High -- | Low -- °F
Precip. -- in
5:43 AM 8:13 PM
Waxing Gibbous, 98% visible
Pressure 30.04 in
Visibility 10.0 miles
Clouds Clear
Heat Index 78 °F
Dew Point 62 °F
Humidity 62%
Rainfall 0.00 in
Snow Depth Not available.
UV 0 out of 12
Pollen .70 out of 12
Air Quality Not available.
Flu Activity Not available.
METAR KLOT 300255Z AUTO 27006KT 10SM CLR 22/15 A3004 RMK AO2 T02150146

More Conditions Fewer Conditions

Pressure 30.04 in
Visibility 10.0 miles
Clouds Clear
Heat Index 78 °F
Dew Point 62 °F
Humidity 62%
Rainfall 0.00 in
Snow Depth Not available.
UV 0 out of 12
Pollen .70 out of 12
Air Quality Not available.
Flu Activity Not available.
METAR KLOT 300255Z AUTO 27006KT 10SM CLR 22/15 A3004 RMK AO2 T02150146

More Conditions Fewer Conditions

10-Day Weather Forecast

×

Almanac

Astronomy

Jul. 29, 2015 Rise Set
Actual Time
Civil Twilight
Nautical Twilight
Astronomical Twilight
Moon
Length of Visible Light
Length of Day
Tomorrow will be .
, % of the Moon is Illuminated

Today's Extremes

State Highs State Lows

Community

WunderPhotos

Upload Photos

1,842,282 photos uploaded!

WunderBlogs® & News

Nearby

Air Quality

  Air Quality AQ Index Pollutant
Not available.

Snow Depth

Station Depth Elevation

Earthquake Activity

City Distance Mag. Time & Date
Minimum magnitude displayed is 2.5.

Coastal Water Temperatures

Place Temperature

Stations

Nearby Weather Stations

Station Location Temp. Windchill Dew Point Humidity Wind Precip. Elev Updated Type